Time;durP1;ratioP1;P1;durP2;ratioP2;P2;SDS_P1;SDS_P2;PMS_P1;PMS_P2;Temp;Humidity;BMP_temperature;BMP_pressure;BME280_temperature;BME280_humidity;BME280_pressure;Samples;Min_cycle;Max_cycle;Signal;HPM_P1;HPM_P2
2021/06/01 00:02:16;;;;;;;;;14.00;11.67;;;;;23.70;37.84;101005.78;4998782;28;59204;-58
2021/06/01 00:04:41;;;;;;;;;8.67;8.67;;;;;23.70;38.04;101007.59;4999045;28;58506;-57
2021/06/01 00:07:06;;;;;;;;;11.67;10.67;;;;;23.70;37.94;101010.25;4999125;28;53034;-58
2021/06/01 00:09:32;;;;;;;;;11.00;10.33;;;;;23.69;37.90;101009.38;4999132;28;55379;-58
2021/06/01 00:11:57;;;;;;;;;11.00;11.00;;;;;23.68;38.10;101005.00;4998844;28;57909;-58
2021/06/01 00:14:23;;;;;;;;;10.33;9.00;;;;;23.69;38.11;101011.19;4999617;28;45393;-58
2021/06/01 00:16:50;;;;;;;;;12.33;11.33;;;;;23.68;37.71;101002.38;4998889;28;53071;-58
2021/06/01 00:19:15;;;;;;;;;11.00;11.00;;;;;23.67;37.97;101000.66;4999449;28;45367;-58
2021/06/01 00:21:41;;;;;;;;;10.00;10.00;;;;;23.67;38.05;100999.81;4999184;28;45255;-58
2021/06/01 00:24:08;;;;;;;;;9.67;8.67;;;;;23.67;37.49;100999.81;5022871;27;45376;-57
2021/06/01 00:26:34;;;;;;;;;10.67;10.67;;;;;23.66;37.97;101001.63;4979941;28;45322;-57
2021/06/01 00:28:59;;;;;;;;;10.00;10.00;;;;;23.66;38.05;100996.31;4979553;28;45462;-58
2021/06/01 00:31:24;;;;;;;;;10.33;9.00;;;;;23.65;38.07;100999.91;4980130;28;52770;-58
2021/06/01 00:33:50;;;;;;;;;12.00;11.00;;;;;23.65;37.53;100997.25;4998478;28;47888;-57
2021/06/01 00:36:15;;;;;;;;;10.67;9.67;;;;;23.64;37.52;100995.53;4998851;28;50539;-57
2021/06/01 00:38:40;;;;;;;;;8.67;8.67;;;;;23.65;38.14;100996.38;4998619;28;59090;-58
2021/06/01 00:41:06;;;;;;;;;14.33;11.00;;;;;23.64;37.42;100998.19;4998017;28;64968;-58
2021/06/01 00:43:32;;;;;;;;;11.00;11.00;;;;;23.64;37.46;101003.50;4998003;28;45290;-57
2021/06/01 00:45:58;;;;;;;;;11.33;10.33;;;;;23.64;37.53;100997.31;4998983;28;45556;-57
2021/06/01 00:48:23;;;;;;;;;10.00;10.00;;;;;23.63;37.63;100996.47;4994349;28;45359;-57
2021/06/01 00:50:49;;;;;;;;;10.33;10.00;;;;;23.63;38.12;100988.53;4994906;28;46317;-57
2021/06/01 00:53:14;;;;;;;;;9.00;9.00;;;;;23.63;38.13;100990.31;4999117;28;45216;-58
2021/06/01 00:55:40;;;;;;;;;9.00;9.00;;;;;23.61;37.48;100990.41;4999112;28;45273;-58
2021/06/01 00:58:05;;;;;;;;;10.33;10.33;;;;;23.61;37.85;100982.44;4998853;28;45441;-58
2021/06/01 01:03:15;;;;;;;;;9.00;9.00;;;;;23.61;37.54;100985.09;4999016;28;45323;-57
2021/06/01 01:05:43;;;;;;;;;12.00;10.67;;;;;23.60;37.67;100984.22;4994309;28;45323;-58
2021/06/01 01:08:21;;;;;;;;;11.00;11.00;;;;;23.61;37.88;100987.75;4989586;28;46913;-58
2021/06/01 01:10:47;;;;;;;;;10.67;10.67;;;;;23.60;38.14;100973.63;4998693;28;45191;-58
2021/06/01 01:13:13;;;;;;;;;10.33;10.33;;;;;23.60;37.67;100980.75;4998547;28;45266;-58
2021/06/01 01:15:40;;;;;;;;;13.00;12.00;;;;;23.59;37.52;100974.59;4993948;28;45442;-58
2021/06/01 01:18:13;;;;;;;;;11.00;11.00;;;;;23.59;37.69;100974.59;4977707;28;61462;-58
2021/06/01 01:20:49;;;;;;;;;11.00;11.00;;;;;23.59;38.23;100968.44;4998587;28;45243;-58
2021/06/01 01:23:18;;;;;;;;;13.33;11.67;;;;;23.59;38.14;100976.38;5022588;27;45395;-58
2021/06/01 01:25:58;;;;;;;;;8.67;8.67;;;;;23.58;37.65;100967.59;4987740;28;45375;-58
2021/06/01 01:29:02;;;;;;;;;11.00;11.00;;;;;23.59;37.75;100968.44;4996696;28;45451;-58
2021/06/01 01:31:33;;;;;;;;;12.67;10.33;;;;;23.56;38.22;100961.50;4984208;28;45239;-58
2021/06/01 01:33:59;;;;;;;;;9.00;9.00;;;;;23.57;37.75;100962.34;4996927;28;45517;-58
2021/06/01 01:36:25;;;;;;;;;9.00;9.00;;;;;23.57;38.13;100965.00;4998537;28;45259;-58
2021/06/01 01:38:51;;;;;;;;;9.33;8.67;;;;;23.56;37.73;100958.00;4996940;28;45350;-58
2021/06/01 01:41:16;;;;;;;;;11.33;11.33;;;;;23.57;38.20;100959.69;4998426;28;45305;-58
2021/06/01 01:43:44;;;;;;;;;10.33;10.33;;;;;23.55;37.68;100954.50;4997884;28;54054;-58
2021/06/01 01:46:13;;;;;;;;;11.00;9.00;;;;;23.56;38.04;100963.28;4998014;27;45436;-58
2021/06/01 01:51:26;;;;;;;;;8.00;8.00;;;;;23.54;37.63;100950.13;4998035;28;45355;-58
2021/06/01 01:53:54;;;;;;;;;10.33;9.00;;;;;23.55;37.84;100949.19;4994587;28;45491;-58
2021/06/01 01:56:21;;;;;;;;;13.00;11.67;;;;;23.54;37.62;100947.50;5016728;28;45493;-59
2021/06/01 01:58:49;;;;;;;;;14.00;11.00;;;;;23.54;37.75;100938.66;5015848;27;46088;-58
2021/06/01 02:01:16;;;;;;;;;10.00;9.33;;;;;23.53;37.61;100940.47;5000917;28;45496;-58
2021/06/01 02:03:42;;;;;;;;;10.33;8.67;;;;;23.53;37.97;100937.84;4999386;28;45271;-58
2021/06/01 02:06:08;;;;;;;;;10.33;10.33;;;;;23.53;38.01;100936.97;5016256;28;45418;-58
2021/06/01 02:08:34;;;;;;;;;10.00;10.00;;;;;23.52;38.31;100933.47;5000729;28;45251;-58
2021/06/01 02:10:59;;;;;;;;;11.67;9.00;;;;;23.53;37.74;100936.97;4996652;28;45268;-58
2021/06/01 02:13:28;;;;;;;;;12.00;9.33;;;;;23.52;38.12;100936.13;4995355;28;45423;-58
2021/06/01 02:15:54;;;;;;;;;10.33;9.00;;;;;23.52;38.06;100936.13;5001407;28;45309;-58
2021/06/01 02:18:19;;;;;;;;;8.33;7.33;;;;;23.51;37.42;100931.75;5000415;28;46302;-58
2021/06/01 02:20:47;;;;;;;;;10.00;10.00;;;;;23.52;38.06;100927.31;5000996;28;45324;-58
2021/06/01 02:26:03;;;;;;;;;10.00;10.00;;;;;23.52;38.48;100937.94;4991061;28;45249;-58
2021/06/01 02:28:39;;;;;;;;;10.00;10.00;;;;;23.51;37.70;100930.91;4999257;28;45298;-58
2021/06/01 02:31:07;;;;;;;;;11.00;11.00;;;;;23.51;37.62;100933.56;4998368;28;45419;-57
2021/06/01 02:33:36;;;;;;;;;11.00;10.00;;;;;23.49;38.24;100930.97;4999492;27;45317;-58
2021/06/01 02:36:03;;;;;;;;;8.67;8.67;;;;;23.51;38.08;100930.91;4997115;27;45529;-58
2021/06/01 02:38:31;;;;;;;;;9.00;9.00;;;;;23.50;38.12;100926.56;5000616;28;46222;-58
2021/06/01 02:40:57;;;;;;;;;9.67;9.67;;;;;23.50;37.73;100931.84;5015462;28;45263;-58
2021/06/01 02:43:23;;;;;;;;;10.00;9.33;;;;;23.49;38.07;100925.69;4982206;28;62351;-58
2021/06/01 02:45:49;;;;;;;;;9.00;8.00;;;;;23.49;37.57;100925.69;4999895;28;51662;-58
2021/06/01 02:48:18;;;;;;;;;10.00;8.67;;;;;23.49;37.69;100922.19;4998126;28;65933;-57
2021/06/01 02:50:44;;;;;;;;;8.33;8.33;;;;;23.49;38.24;100914.25;5000792;28;45320;-58
2021/06/01 02:53:12;;;;;;;;;8.00;7.33;;;;;23.49;38.25;100919.53;4996120;28;45355;-58
2021/06/01 02:55:37;;;;;;;;;7.67;7.67;;;;;23.48;37.38;100915.19;4981853;28;45259;-58
2021/06/01 02:58:07;;;;;;;;;9.00;9.00;;;;;23.48;37.96;100918.66;5000275;28;46029;-58
2021/06/01 03:00:34;;;;;;;;;9.67;8.00;;;;;23.48;37.96;100920.47;4999044;28;46160;-57
2021/06/01 03:03:04;;;;;;;;;6.33;6.33;;;;;23.48;38.07;100917.81;5000346;28;45432;-57
2021/06/01 03:05:30;;;;;;;;;9.00;9.00;;;;;23.47;38.11;100921.41;5000521;28;45225;-57
2021/06/01 03:08:10;;;;;;;;;8.33;7.33;;;;;23.47;37.71;100922.25;4995648;28;46288;-58
2021/06/01 03:10:35;;;;;;;;;9.00;7.00;;;;;23.47;38.26;100916.13;4979339;28;45352;-58
2021/06/01 03:13:01;;;;;;;;;7.33;7.33;;;;;23.47;38.26;100910.81;4992448;28;45320;-58
2021/06/01 03:15:27;;;;;;;;;9.00;7.33;;;;;23.46;37.69;100909.09;5000596;28;45539;-58
2021/06/01 03:17:52;;;;;;;;;8.00;8.00;;;;;23.46;37.57;100917.06;4998421;27;46906;-58
2021/06/01 03:20:18;;;;;;;;;8.67;8.67;;;;;23.46;37.67;100914.41;4999950;28;47315;-57
2021/06/01 03:22:44;;;;;;;;;9.00;9.00;;;;;23.46;37.88;100911.75;5022071;27;45529;-57
2021/06/01 03:25:10;;;;;;;;;9.33;9.33;;;;;23.44;38.20;100911.84;4986667;27;45471;-58
2021/06/01 03:27:35;;;;;;;;;10.67;8.00;;;;;23.43;38.10;100908.31;4978999;28;46847;-58
2021/06/01 03:30:01;;;;;;;;;8.00;8.00;;;;;23.43;37.93;100907.50;4979990;28;51999;-58
2021/06/01 03:32:26;;;;;;;;;7.33;7.33;;;;;23.43;37.66;100908.31;4991338;28;45344;-58
2021/06/01 03:34:52;;;;;;;;;10.00;7.33;;;;;23.43;37.68;100908.31;4999959;28;45514;-58
2021/06/01 03:37:17;;;;;;;;;9.67;8.67;;;;;23.42;37.65;100903.97;4999389;28;63513;-58
2021/06/01 03:39:42;;;;;;;;;8.67;7.67;;;;;23.42;37.98;100906.63;4999975;28;45297;-58
2021/06/01 03:42:12;;;;;;;;;11.67;10.00;;;;;23.42;38.32;100901.31;5000118;28;45291;-58
2021/06/01 03:44:42;;;;;;;;;6.33;6.33;;;;;23.42;38.06;100897.84;5000037;28;45299;-58
2021/06/01 03:47:07;;;;;;;;;8.33;7.67;;;;;23.41;37.51;100899.59;4994774;28;46110;-58
2021/06/01 03:49:34;;;;;;;;;4.33;4.33;;;;;23.42;38.15;100896.03;4998893;28;45351;-58
2021/06/01 03:51:59;;;;;;;;;7.67;7.67;;;;;23.40;38.24;100900.53;4999863;28;45468;-58
2021/06/01 03:54:26;;;;;;;;;7.33;7.33;;;;;23.40;38.27;100900.53;4999544;28;50005;-58
2021/06/01 03:56:51;;;;;;;;;6.33;6.33;;;;;23.40;38.21;100908.50;4999809;27;46710;-57
2021/06/01 03:59:16;;;;;;;;;7.00;7.00;;;;;23.41;37.93;100912.84;4999191;28;53507;-58
2021/06/01 04:01:42;;;;;;;;;5.00;5.00;;;;;23.40;38.28;100905.84;4999205;28;53838;-58
2021/06/01 04:04:07;;;;;;;;;9.67;8.00;;;;;23.39;37.82;100898.00;4999686;28;45395;-58
2021/06/01 04:06:34;;;;;;;;;7.00;7.00;;;;;23.40;38.25;100899.69;4999175;28;57905;-58
2021/06/01 04:09:00;;;;;;;;;7.33;7.33;;;;;23.39;37.86;100898.81;4999486;27;45313;-58
2021/06/01 04:11:25;;;;;;;;;6.67;6.67;;;;;23.39;37.66;100903.28;4999845;28;45219;-58
2021/06/01 04:13:50;;;;;;;;;7.67;7.67;;;;;23.39;37.78;100901.47;4998821;28;57933;-58
2021/06/01 04:16:16;;;;;;;;;6.33;6.33;;;;;23.38;37.73;100898.91;4994381;28;46265;-58
2021/06/01 04:18:41;;;;;;;;;8.00;7.00;;;;;23.39;38.13;100908.56;4997292;28;57021;-58
2021/06/01 04:21:06;;;;;;;;;7.33;7.33;;;;;23.38;38.42;100902.41;4999640;28;45234;-58
2021/06/01 04:23:32;;;;;;;;;8.33;8.33;;;;;23.38;38.46;100905.06;5025396;27;45658;-58
2021/06/01 04:25:57;;;;;;;;;6.33;6.33;;;;;23.38;38.50;100905.06;4978912;28;68222;-58
2021/06/01 04:28:22;;;;;;;;;7.00;7.00;;;;;23.38;38.20;100910.34;4978767;28;62639;-57
2021/06/01 04:30:48;;;;;;;;;8.33;7.00;;;;;23.37;38.24;100898.06;4979902;28;45262;-58
2021/06/01 04:33:14;;;;;;;;;7.33;7.33;;;;;23.38;38.00;100898.91;4996040;28;58678;-58
2021/06/01 04:35:40;;;;;;;;;6.00;6.00;;;;;23.37;38.22;100887.47;4999354;28;45990;-58
2021/06/01 04:38:06;;;;;;;;;7.00;7.00;;;;;23.38;38.31;100896.28;4997589;28;45405;-58
2021/06/01 04:40:31;;;;;;;;;7.33;7.33;;;;;23.37;38.02;100902.50;4999339;28;45314;-58
2021/06/01 04:42:57;;;;;;;;;7.00;7.00;;;;;23.37;37.73;100898.06;4997726;28;45613;-58
2021/06/01 04:45:22;;;;;;;;;9.00;7.00;;;;;23.38;37.86;100896.28;4997410;28;48356;-58
2021/06/01 04:47:47;;;;;;;;;8.00;6.33;;;;;23.37;38.07;100892.75;4998746;28;45160;-58
2021/06/01 04:50:14;;;;;;;;;7.33;7.33;;;;;23.38;37.67;100890.97;4998460;28;59139;-58
2021/06/01 04:52:40;;;;;;;;;8.00;6.33;;;;;23.37;38.33;100889.25;4994478;28;45480;-58
2021/06/01 04:55:07;;;;;;;;;7.67;7.67;;;;;23.37;37.89;100889.25;4989835;28;46326;-58
2021/06/01 04:57:32;;;;;;;;;7.33;7.33;;;;;23.37;37.92;100890.09;4998609;28;45295;-58
2021/06/01 04:59:57;;;;;;;;;7.00;7.00;;;;;23.37;38.18;100895.41;4998397;28;56625;-58
2021/06/01 05:02:23;;;;;;;;;8.00;7.67;;;;;23.35;38.47;100888.50;4996691;28;56963;-58
2021/06/01 05:04:48;;;;;;;;;6.33;6.33;;;;;23.36;37.93;100884.91;4996571;28;68655;-58
2021/06/01 05:07:13;;;;;;;;;7.00;6.33;;;;;23.36;38.04;100883.13;4998514;28;45546;-58
2021/06/01 05:09:39;;;;;;;;;9.33;6.67;;;;;23.36;37.90;100884.91;4997983;28;62237;-58
2021/06/01 05:12:06;;;;;;;;;8.00;7.00;;;;;23.34;37.71;100885.00;4997924;28;54416;-58
2021/06/01 05:14:31;;;;;;;;;7.00;5.33;;;;;23.36;37.89;100879.59;4998411;28;46715;-58
2021/06/01 05:16:56;;;;;;;;;8.00;6.00;;;;;23.36;38.29;100879.59;4998015;28;45446;-58
2021/06/01 05:19:22;;;;;;;;;7.67;6.00;;;;;23.35;37.92;100878.78;4998289;28;54850;-58
2021/06/01 05:21:47;;;;;;;;;7.00;7.00;;;;;23.35;38.52;100876.13;4998474;28;46489;-58
2021/06/01 05:24:13;;;;;;;;;7.33;6.33;;;;;23.35;38.36;100870.81;5014661;27;53436;-58
2021/06/01 05:26:41;;;;;;;;;6.67;6.67;;;;;23.34;37.80;100866.47;4978835;28;45366;-59
2021/06/01 05:29:07;;;;;;;;;7.00;7.00;;;;;23.35;38.25;100867.31;4980059;28;45596;-58
2021/06/01 05:31:58;;;;;;;;;6.00;6.00;;;;;23.36;38.40;100871.66;4985143;28;45347;-58
2021/06/01 05:34:20;;;;;;;;;7.33;6.67;;;;;23.35;38.36;100872.59;5001473;28;45976;-58
2021/06/01 05:36:46;;;;;;;;;6.00;6.00;;;;;23.34;37.93;100879.72;5016106;28;45377;-58
2021/06/01 05:39:12;;;;;;;;;7.00;7.00;;;;;23.35;37.88;100877.91;5000757;28;59648;-58
2021/06/01 05:41:38;;;;;;;;;8.00;8.00;;;;;23.35;37.98;100876.13;5001647;28;45507;-58
2021/06/01 05:44:03;;;;;;;;;7.00;7.00;;;;;23.35;38.32;100876.13;5001025;28;45153;-58
2021/06/01 05:46:29;;;;;;;;;8.00;6.67;;;;;23.34;37.95;100871.75;5000389;27;45436;-58
2021/06/01 05:48:54;;;;;;;;;6.33;6.00;;;;;23.36;38.24;100874.31;5001330;28;45286;-58
2021/06/01 05:51:24;;;;;;;;;6.67;6.67;;;;;23.35;38.57;100865.53;5001444;28;45203;-58
2021/06/01 05:53:52;;;;;;;;;6.33;6.33;;;;;23.36;37.96;100869.88;5000938;28;46057;-58
2021/06/01 05:56:18;;;;;;;;;7.00;6.67;;;;;23.35;38.27;100870.81;4999447;28;45261;-58
2021/06/01 05:58:43;;;;;;;;;7.00;7.00;;;;;23.35;38.08;100877.91;4992981;27;45587;-58
2021/06/01 06:01:08;;;;;;;;;7.67;7.67;;;;;23.36;38.23;100874.31;4978404;28;45462;-58
2021/06/01 06:03:35;;;;;;;;;7.33;7.33;;;;;23.36;38.25;100861.94;4976329;28;57479;-58
2021/06/01 06:06:03;;;;;;;;;8.00;8.00;;;;;23.37;38.39;100868.91;4985644;28;45567;-59
2021/06/01 06:08:30;;;;;;;;;7.67;7.00;;;;;23.37;38.13;100866.28;4988366;28;45441;-59
2021/06/01 06:10:55;;;;;;;;;8.00;7.00;;;;;23.38;38.08;100864.50;4982952;28;45466;-60
2021/06/01 06:13:20;;;;;;;;;6.00;5.00;;;;;23.38;38.38;100860.03;4986162;28;46201;-60
2021/06/01 06:15:46;;;;;;;;;10.33;8.67;;;;;23.39;38.49;100863.56;4980959;28;45364;-60
2021/06/01 06:18:18;;;;;;;;;9.33;8.33;;;;;23.39;38.92;100861.75;4983151;28;45232;-57
2021/06/01 06:20:44;;;;;;;;;9.67;8.67;;;;;23.41;38.56;100859.03;4984745;28;45526;-60
2021/06/01 06:23:12;;;;;;;;;7.33;7.00;;;;;23.40;38.64;100863.47;5024077;27;46047;-60
2021/06/01 06:25:37;;;;;;;;;9.00;7.33;;;;;23.41;38.97;100864.34;4980764;28;45554;-60
2021/06/01 06:28:02;;;;;;;;;8.33;7.67;;;;;23.41;38.43;100865.19;4980736;28;45231;-59
2021/06/01 06:30:28;;;;;;;;;7.33;7.33;;;;;23.41;39.04;100862.53;4967201;28;45435;-60
2021/06/01 06:32:53;;;;;;;;;6.67;6.67;;;;;23.41;38.45;100865.19;4985649;28;46134;-59
2021/06/01 06:35:19;;;;;;;;;8.33;8.33;;;;;23.42;38.48;100864.25;4988507;28;45459;-61
2021/06/01 06:37:45;;;;;;;;;8.33;6.33;;;;;23.42;38.38;100864.25;4984611;28;45545;-59
2021/06/01 06:40:11;;;;;;;;;10.00;9.00;;;;;23.43;38.60;100849.22;4996421;28;45226;-60
2021/06/01 06:42:37;;;;;;;;;8.00;7.33;;;;;23.44;39.01;100853.59;5000488;28;45342;-59
2021/06/01 06:45:08;;;;;;;;;10.00;7.00;;;;;23.43;38.40;100855.38;5000295;28;45385;-60
2021/06/01 06:47:44;;;;;;;;;6.67;6.67;;;;;23.43;38.27;100852.72;5000029;28;45302;-60
2021/06/01 06:50:14;;;;;;;;;7.33;7.33;;;;;23.43;39.05;100852.72;5000600;28;45188;-60
2021/06/01 06:52:40;;;;;;;;;7.67;7.67;;;;;23.43;38.42;100849.22;5000117;28;46492;-60
2021/06/01 06:55:08;;;;;;;;;9.67;8.00;;;;;23.42;38.39;100861.59;5000183;28;45340;-60
2021/06/01 06:57:38;;;;;;;;;6.33;6.33;;;;;23.44;38.34;100856.22;5000378;27;45171;-60
2021/06/01 07:00:15;;;;;;;;;8.00;8.00;;;;;23.44;38.56;100856.22;5015534;28;45433;-59
2021/06/01 07:02:42;;;;;;;;;7.00;7.00;;;;;23.43;38.94;100855.38;4998213;27;46314;-60
2021/06/01 07:05:09;;;;;;;;;7.00;7.00;;;;;23.43;38.51;100852.72;4998892;27;45224;-59
2021/06/01 07:07:34;;;;;;;;;8.67;7.67;;;;;23.43;38.39;100857.16;5015247;28;46510;-60
2021/06/01 07:10:01;;;;;;;;;8.67;8.00;;;;;23.42;39.00;100845.72;5000812;28;45220;-60
2021/06/01 07:12:26;;;;;;;;;7.67;7.67;;;;;23.42;38.73;100839.56;5015150;28;46314;-60
2021/06/01 07:14:51;;;;;;;;;7.67;6.33;;;;;23.43;38.48;100841.28;4999921;28;45454;-59
2021/06/01 07:17:17;;;;;;;;;6.00;6.00;;;;;23.43;38.32;100846.56;4999871;28;45364;-59
2021/06/01 07:19:46;;;;;;;;;9.00;7.00;;;;;23.42;38.21;100844.88;5000520;27;45477;-59
2021/06/01 07:22:11;;;;;;;;;5.33;5.33;;;;;23.41;38.40;100838.69;4999883;28;45412;-60
2021/06/01 07:24:37;;;;;;;;;7.67;7.00;;;;;23.42;38.98;100829.81;5048184;27;45305;-60
2021/06/01 07:27:02;;;;;;;;;7.67;7.67;;;;;23.42;38.44;100829.81;4979154;28;45728;-60
2021/06/01 07:29:28;;;;;;;;;7.00;7.00;;;;;23.41;38.86;100824.63;4980548;28;45524;-60
2021/06/01 07:31:54;;;;;;;;;8.33;7.33;;;;;23.41;38.48;100833.41;4986363;28;45337;-60
2021/06/01 07:34:20;;;;;;;;;8.67;7.33;;;;;23.41;38.88;100828.09;4999643;28;45242;-60
2021/06/01 07:36:45;;;;;;;;;8.00;6.00;;;;;23.41;38.29;100820.16;4995557;28;45263;-60
2021/06/01 07:39:11;;;;;;;;;8.00;8.00;;;;;23.42;38.49;100821.88;4993707;28;45492;-60
2021/06/01 07:41:37;;;;;;;;;9.00;8.00;;;;;23.41;38.46;100822.81;4999650;28;46455;-60
2021/06/01 07:44:03;;;;;;;;;7.33;6.33;;;;;23.41;38.60;100820.16;4981991;28;45443;-60
2021/06/01 07:46:29;;;;;;;;;6.33;6.33;;;;;23.42;38.75;100823.69;5014823;27;45330;-60
2021/06/01 07:48:55;;;;;;;;;7.00;7.00;;;;;23.41;38.85;100827.25;4999962;28;45395;-60
2021/06/01 07:51:28;;;;;;;;;9.33;7.33;;;;;23.41;38.27;100814.03;4998893;28;45653;-60
2021/06/01 07:53:54;;;;;;;;;8.00;8.00;;;;;23.42;38.91;100819.22;4999642;28;45294;-60
2021/06/01 07:56:19;;;;;;;;;7.67;6.00;;;;;23.42;38.73;100815.75;5000231;28;45660;-60
2021/06/01 07:58:47;;;;;;;;;6.33;6.33;;;;;23.42;39.01;100823.69;5015194;28;45562;-60
2021/06/01 08:01:12;;;;;;;;;8.00;8.00;;;;;23.42;38.38;100813.09;5014993;28;46203;-60
2021/06/01 08:03:38;;;;;;;;;5.67;5.67;;;;;23.42;38.74;100821.88;4997715;28;50309;-61
2021/06/01 08:06:03;;;;;;;;;8.00;8.00;;;;;23.42;38.12;100816.56;4999750;28;45190;-60
2021/06/01 08:08:29;;;;;;;;;6.67;6.00;;;;;23.42;38.94;100807.78;4998243;28;45584;-60
2021/06/01 08:10:54;;;;;;;;;5.33;5.33;;;;;23.42;38.77;100792.75;4999255;28;55999;-61
2021/06/01 08:13:20;;;;;;;;;7.33;7.33;;;;;23.42;38.42;100795.38;4998803;28;61849;-60
2021/06/01 08:15:51;;;;;;;;;9.33;6.00;;;;;23.43;38.67;100793.63;4999606;28;45229;-60
2021/06/01 08:18:18;;;;;;;;;6.33;6.33;;;;;23.43;38.65;100796.25;4997949;27;45866;-61
2021/06/01 08:20:55;;;;;;;;;6.33;6.33;;;;;23.43;38.74;100791.81;4998083;28;48205;-60
2021/06/01 08:23:21;;;;;;;;;6.00;6.00;;;;;23.43;38.77;100791.81;5026840;27;45490;-61
2021/06/01 08:25:46;;;;;;;;;7.00;7.00;;;;;23.44;38.54;100788.22;4978698;28;45281;-60
2021/06/01 08:28:12;;;;;;;;;7.00;7.00;;;;;23.45;38.28;100783.75;4979533;28;45535;-60
2021/06/01 08:30:37;;;;;;;;;5.67;5.33;;;;;23.43;38.26;100775.91;4979683;28;47209;-60
2021/06/01 08:33:02;;;;;;;;;7.33;7.33;;;;;23.45;38.82;100775.81;4995222;28;45309;-60
2021/06/01 08:35:28;;;;;;;;;7.33;7.33;;;;;23.46;38.15;100774.03;4999442;28;45553;-59
2021/06/01 08:37:53;;;;;;;;;7.67;6.00;;;;;23.46;38.44;100776.69;4999031;28;55376;-60
2021/06/01 08:40:19;;;;;;;;;6.33;6.33;;;;;23.46;38.92;100774.88;4999253;28;45334;-60
2021/06/01 08:42:44;;;;;;;;;7.33;6.67;;;;;23.46;38.54;100772.22;4998939;28;45325;-60
2021/06/01 08:45:10;;;;;;;;;5.67;5.67;;;;;23.47;38.22;100770.47;4999195;27;45391;-60
2021/06/01 08:47:38;;;;;;;;;6.00;6.00;;;;;23.47;38.32;100773.94;4998733;28;45397;-61
2021/06/01 08:50:07;;;;;;;;;6.00;5.33;;;;;23.47;38.26;100765.16;4997854;28;45500;-60
2021/06/01 08:52:33;;;;;;;;;7.00;7.00;;;;;23.47;38.72;100765.16;5013892;27;45405;-60
2021/06/01 08:54:59;;;;;;;;;6.33;6.33;;;;;23.47;38.16;100766.00;4997758;28;45385;-60
2021/06/01 08:57:27;;;;;;;;;10.33;7.00;;;;;23.48;38.49;100772.16;4998925;28;45528;-60
2021/06/01 08:59:53;;;;;;;;;7.00;5.67;;;;;23.48;38.63;100762.41;4987778;28;46664;-60
2021/06/01 09:02:22;;;;;;;;;9.33;8.33;;;;;23.48;38.12;100762.41;4978937;28;45243;-60
2021/06/01 09:04:56;;;;;;;;;7.67;7.67;;;;;23.49;38.77;100765.94;4982509;28;45425;-60
2021/06/01 09:08:07;;;;;;;;;6.33;6.33;;;;;23.49;38.41;100768.59;4980913;28;45500;-60
2021/06/01 09:13:28;;;;;;;;;9.33;8.33;;;;;23.50;38.43;100757.06;4982167;28;45226;-61
2021/06/01 09:21:35;;;;;;;;;6.67;6.67;;;;;23.51;38.26;100754.31;4981770;28;45225;-60
2021/06/01 09:24:03;;;;;;;;;6.00;6.00;;;;;23.52;38.18;100752.53;5020166;27;45188;-60
2021/06/01 09:27:15;;;;;;;;;8.00;7.00;;;;;23.52;38.18;100749.88;4993692;28;45624;-59
2021/06/01 09:29:47;;;;;;;;;7.00;7.00;;;;;23.52;38.26;100745.41;4987638;28;45225;-59
2021/06/01 09:32:16;;;;;;;;;6.00;6.00;;;;;23.52;38.41;100740.13;4990606;28;45354;-60
2021/06/01 09:34:49;;;;;;;;;7.00;5.33;;;;;23.53;38.29;100740.97;4999811;27;45242;-60
2021/06/01 09:37:29;;;;;;;;;6.00;6.00;;;;;23.53;38.83;100736.53;5001313;27;45358;-59
2021/06/01 09:40:19;;;;;;;;;10.33;9.00;;;;;23.54;38.64;100746.19;5001216;28;45564;-60
2021/06/01 09:42:49;;;;;;;;;8.00;8.00;;;;;23.55;38.74;100733.78;5000771;28;46147;-59
2021/06/01 09:45:16;;;;;;;;;6.33;6.33;;;;;23.54;38.56;100721.47;5000961;28;45535;-59
2021/06/01 09:47:48;;;;;;;;;7.00;7.00;;;;;23.56;38.69;100730.19;4999522;28;45281;-59
2021/06/01 09:51:10;;;;;;;;;7.00;7.00;;;;;23.56;38.21;100727.56;5001226;28;45367;-59
2021/06/01 09:53:36;;;;;;;;;8.00;6.00;;;;;23.57;38.05;100726.63;5008395;27;46174;-60
2021/06/01 09:56:02;;;;;;;;;9.00;8.00;;;;;23.57;38.13;100731.91;5000633;28;45172;-60
2021/06/01 09:58:29;;;;;;;;;10.00;8.00;;;;;23.59;38.08;100724.72;5000802;28;45287;-60
2021/06/01 10:00:56;;;;;;;;;7.33;6.67;;;;;23.59;38.56;100728.25;5001059;28;45390;-60
2021/06/01 10:03:24;;;;;;;;;7.00;7.00;;;;;23.60;38.49;100734.38;5000534;28;45403;-60
2021/06/01 10:05:55;;;;;;;;;12.33;7.33;;;;;23.60;37.99;100726.44;4995412;27;45207;-60
2021/06/01 10:08:23;;;;;;;;;9.00;8.33;;;;;23.61;38.54;100728.16;4993796;28;45511;-60
2021/06/01 10:11:02;;;;;;;;;5.33;5.33;;;;;23.61;38.39;100728.16;5001215;28;45227;-60
2021/06/01 10:13:32;;;;;;;;;8.33;8.00;;;;;23.62;38.05;100729.00;5000638;28;45494;-59
2021/06/01 10:16:00;;;;;;;;;7.00;7.00;;;;;23.63;38.38;100734.22;5000037;27;45241;-60
2021/06/01 10:18:29;;;;;;;;;7.33;7.33;;;;;23.63;38.71;100726.28;4998727;28;45381;-60
2021/06/01 10:20:57;;;;;;;;;6.33;6.33;;;;;23.64;37.88;100725.34;5001011;28;45506;-60
2021/06/01 10:23:27;;;;;;;;;8.67;6.00;;;;;23.65;38.30;100718.22;5029458;27;46370;-59
2021/06/01 10:25:54;;;;;;;;;7.00;7.00;;;;;23.65;38.47;100707.63;4981259;28;45365;-59
2021/06/01 10:28:32;;;;;;;;;7.00;6.00;;;;;23.65;38.20;100702.34;4981034;28;45372;-59
2021/06/01 10:30:58;;;;;;;;;7.67;7.67;;;;;23.66;38.41;100706.69;4981100;28;45238;-60
2021/06/01 10:33:26;;;;;;;;;8.00;8.00;;;;;23.66;38.57;100698.75;4999233;28;45272;-60
2021/06/01 10:42:25;;;;;;;;;6.33;6.33;;;;;23.67;38.39;100701.28;5000729;28;45264;-60
2021/06/01 10:50:39;;;;;;;;;8.33;8.00;;;;;23.70;38.26;100690.53;5000377;28;45445;-59
2021/06/01 10:53:27;;;;;;;;;8.33;8.00;;;;;23.71;38.43;100686.09;5000675;27;45432;-59
2021/06/01 10:56:03;;;;;;;;;6.33;6.33;;;;;23.70;37.90;100690.53;5000135;28;45987;-59
2021/06/01 10:58:35;;;;;;;;;8.00;8.00;;;;;23.71;38.14;100689.59;4999174;28;45268;-59
2021/06/01 11:04:06;;;;;;;;;9.67;8.00;;;;;23.73;37.84;100684.22;5000297;28;46501;-60
2021/06/01 11:06:47;;;;;;;;;6.67;6.67;;;;;23.73;38.59;100676.25;4998618;28;47001;-59
2021/06/01 11:09:40;;;;;;;;;7.67;7.67;;;;;23.73;38.25;100679.75;5000157;28;45337;-59
2021/06/01 11:14:40;;;;;;;;;9.00;7.00;;;;;23.75;37.77;100682.31;4992414;28;45265;-60
2021/06/01 11:17:06;;;;;;;;;7.00;6.67;;;;;23.75;37.96;100677.88;4999684;28;46318;-60
2021/06/01 11:19:57;;;;;;;;;8.00;7.00;;;;;23.75;37.96;100675.22;5000081;28;45257;-60
2021/06/01 11:22:35;;;;;;;;;9.00;9.00;;;;;23.77;37.80;100680.41;5006950;27;45230;-59
2021/06/01 11:33:14;;;;;;;;;6.33;6.33;;;;;23.79;37.67;100660.00;4998778;28;45267;-59
2021/06/01 11:35:44;;;;;;;;;9.00;8.00;;;;;23.81;38.33;100659.91;5000173;28;45227;-59
2021/06/01 11:38:25;;;;;;;;;5.67;5.67;;;;;23.81;37.70;100655.47;4999398;27;45378;-59
2021/06/01 11:43:39;;;;;;;;;8.00;8.00;;;;;23.82;38.42;100649.22;5000036;28;45306;-59
2021/06/01 11:46:12;;;;;;;;;7.00;7.00;;;;;23.84;38.18;100649.13;4999477;28;45389;-59
2021/06/01 11:51:26;;;;;;;;;7.33;7.00;;;;;23.84;38.38;100636.75;4999523;28;45277;-59
2021/06/01 11:54:08;;;;;;;;;8.67;8.00;;;;;23.85;38.27;100641.09;4999601;28;45258;-59
2021/06/01 12:18:36;;;;;;;;;7.00;7.00;;;;;23.90;37.52;100622.25;5012090;28;45352;-58
2021/06/01 12:21:04;;;;;;;;;8.00;8.00;;;;;23.93;37.43;100629.16;5011696;28;46401;-59
2021/06/01 12:23:38;;;;;;;;;8.00;8.00;;;;;23.92;37.99;100628.31;5031732;27;45444;-59
2021/06/01 13:07:35;;;;;;;;;8.67;8.00;;;;;23.99;37.63;100603.19;4998580;28;45940;-59
2021/06/01 13:12:29;;;;;;;;;7.00;7.00;;;;;24.02;37.39;100604.81;4998570;28;45262;-59
2021/06/01 13:20:34;;;;;;;;;8.00;8.00;;;;;24.02;38.03;100591.56;4998281;28;45301;-59
2021/06/01 13:32:11;;;;;;;;;7.00;7.00;;;;;24.04;37.41;100595.81;4984124;27;45484;-58
2021/06/01 13:39:45;;;;;;;;;8.00;8.00;;;;;24.06;37.90;100595.69;4978443;28;45712;-58
2021/06/01 13:48:07;;;;;;;;;8.00;8.00;;;;;24.09;37.79;100582.25;4978325;28;46320;-58